Time;durP1;ratioP1;P1;durP2;ratioP2;P2;SDS_P1;SDS_P2;PMS_P1;PMS_P2;Temp;Humidity;BMP_temperature;BMP_pressure;BME280_temperature;BME280_humidity;BME280_pressure;Samples;Min_cycle;Max_cycle;Signal;HPM_P1;HPM_P2
2022/03/15 00:01:55;;;;;;;17.50;7.83;;;;;;;9.37;63.92;101833.28;5136172;27;20212;-61
2022/03/15 00:04:24;;;;;;;14.90;7.60;;;;;;;9.19;64.44;101829.25;5127585;27;20209;-61
2022/03/15 00:06:52;;;;;;;13.30;7.70;;;;;;;9.35;63.51;101829.03;5130872;27;20204;-60
2022/03/15 00:09:20;;;;;;;17.63;8.07;;;;;;;9.31;63.83;101824.94;5132383;27;20224;-61
2022/03/15 00:11:47;;;;;;;13.60;7.57;;;;;;;9.37;63.51;101825.34;5134296;27;20214;-61
2022/03/15 00:14:15;;;;;;;12.57;7.23;;;;;;;9.38;63.01;101819.09;5130260;27;20232;-61
2022/03/15 00:16:43;;;;;;;14.77;6.93;;;;;;;9.33;63.39;101818.56;5132116;27;20193;-61
2022/03/15 00:19:12;;;;;;;12.33;6.57;;;;;;;9.01;65.00;101833.19;5130004;27;20294;-61
2022/03/15 00:21:41;;;;;;;11.90;6.63;;;;;;;9.09;64.76;101825.56;5132378;27;20243;-61
2022/03/15 00:24:09;;;;;;;12.10;6.47;;;;;;;9.21;63.87;101830.00;5128894;27;20702;-61
2022/03/15 00:26:37;;;;;;;13.77;5.93;;;;;;;9.01;64.93;101825.25;5133637;27;20210;-62
2022/03/15 00:29:16;;;;;;;11.23;6.40;;;;;;;9.05;64.81;101821.44;5129307;27;20304;-62
2022/03/15 00:31:44;;;;;;;10.03;5.90;;;;;;;9.24;64.37;101821.00;5129953;27;20243;-61
2022/03/15 00:34:12;;;;;;;12.90;6.37;;;;;;;8.99;64.72;101817.41;5133523;27;20264;-61
2022/03/15 00:36:40;;;;;;;13.33;5.93;;;;;;;9.21;64.12;101818.56;5137297;27;20212;-61
2022/03/15 00:39:09;;;;;;;11.73;6.00;;;;;;;9.30;63.87;101821.44;5129967;27;20691;-61
2022/03/15 00:41:36;;;;;;;8.93;5.83;;;;;;;9.00;64.48;101812.97;5130751;27;20227;-61
2022/03/15 00:44:05;;;;;;;10.60;6.10;;;;;;;9.15;64.26;101809.25;5131750;27;20212;-61
2022/03/15 00:46:32;;;;;;;13.87;6.67;;;;;;;8.90;65.55;101811.88;5133096;27;20320;-61
2022/03/15 00:49:00;;;;;;;11.70;6.40;;;;;;;8.79;65.65;101806.50;5130146;27;20213;-61
2022/03/15 00:51:29;;;;;;;10.47;6.20;;;;;;;8.92;65.18;101808.19;5131609;27;20243;-61
2022/03/15 00:53:58;;;;;;;15.53;6.80;;;;;;;9.04;64.62;101807.38;5142143;27;20239;-61
2022/03/15 00:56:27;;;;;;;13.83;6.80;;;;;;;9.06;64.35;101813.38;5132614;27;20207;-61
2022/03/15 00:58:54;;;;;;;19.73;8.10;;;;;;;9.18;64.27;101816.97;5133912;27;20200;-61
2022/03/15 01:01:22;;;;;;;10.63;6.40;;;;;;;8.81;65.77;101812.50;5128076;27;20239;-58
2022/03/15 01:03:50;;;;;;;13.63;6.80;;;;;;;8.96;64.91;101807.06;5129243;27;20508;-61
2022/03/15 01:06:18;;;;;;;11.77;6.63;;;;;;;9.21;63.47;101800.91;5125614;27;20223;-62
2022/03/15 01:08:45;;;;;;;12.00;5.93;;;;;;;9.23;63.52;101803.44;5122438;27;20563;-61
2022/03/15 01:11:17;;;;;;;11.13;5.63;;;;;;;9.23;63.80;101804.28;5132297;27;20209;-61
2022/03/15 01:13:46;;;;;;;12.80;6.00;;;;;;;9.22;63.43;101791.16;5122988;27;20331;-61
2022/03/15 01:16:14;;;;;;;12.17;6.00;;;;;;;9.20;63.78;101793.06;5128150;27;20438;-61
2022/03/15 01:18:42;;;;;;;11.17;5.93;;;;;;;9.35;63.09;101798.13;5128509;27;20266;-61
2022/03/15 01:21:12;;;;;;;12.03;6.10;;;;;;;8.87;65.13;101794.44;5124101;27;20243;-61
2022/03/15 01:23:39;;;;;;;11.50;5.90;;;;;;;8.92;64.81;101799.41;5128522;27;20228;-61
2022/03/15 01:26:07;;;;;;;12.60;5.97;;;;;;;9.21;63.55;101789.47;5129191;27;20200;-61
2022/03/15 01:28:34;;;;;;;16.13;6.60;;;;;;;9.12;63.95;101784.81;5132045;27;20213;-61
2022/03/15 01:31:04;;;;;;;11.40;6.07;;;;;;;8.78;65.33;101792.44;5128287;27;20212;-61
2022/03/15 01:33:31;;;;;;;14.17;6.60;;;;;;;9.14;64.31;101786.41;5129699;27;20558;-61
2022/03/15 01:35:59;;;;;;;12.30;5.83;;;;;;;9.25;63.93;101791.78;5129277;27;20213;-61
2022/03/15 01:38:27;;;;;;;11.17;6.10;;;;;;;8.93;65.49;101793.16;5128282;27;20708;-61
2022/03/15 01:40:54;;;;;;;12.17;6.30;;;;;;;8.84;65.72;101796.44;5125412;27;20221;-62
2022/03/15 01:43:22;;;;;;;10.83;5.90;;;;;;;9.05;65.33;101789.69;5127205;27;20295;-61
2022/03/15 01:45:50;;;;;;;9.00;6.00;;;;;;;8.66;66.99;101788.81;5129053;27;20642;-61
2022/03/15 01:48:20;;;;;;;12.33;6.33;;;;;;;8.58;67.42;101777.91;5120348;27;20324;-61
2022/03/15 01:50:48;;;;;;;17.47;6.17;;;;;;;8.97;65.55;101752.34;5135914;27;20202;-61
2022/03/15 01:53:17;;;;;;;10.83;6.20;;;;;;;9.11;65.44;101762.78;5131583;27;20316;-61
2022/03/15 01:55:45;;;;;;;13.67;6.50;;;;;;;9.02;65.92;101774.00;5129628;27;20207;-61
2022/03/15 01:58:12;;;;;;;14.43;5.93;;;;;;;8.66;67.02;101767.66;5128550;27;20231;-61
2022/03/15 02:00:40;;;;;;;10.37;5.83;;;;;;;8.68;66.98;101760.47;5127760;27;20232;-63
2022/03/15 02:03:08;;;;;;;9.93;5.80;;;;;;;8.91;66.22;101761.53;5131786;27;20661;-60
2022/03/15 02:05:37;;;;;;;13.23;6.60;;;;;;;8.73;67.63;101775.16;5129051;27;20618;-61
2022/03/15 02:08:10;;;;;;;10.50;5.77;;;;;;;8.67;67.64;101779.94;5129228;27;20204;-61
2022/03/15 02:10:37;;;;;;;15.87;6.63;;;;;;;8.91;66.67;101773.91;5135708;27;20218;-61
2022/03/15 02:13:05;;;;;;;17.80;7.40;;;;;;;9.05;65.69;101763.22;5121565;27;20228;-62
2022/03/15 02:15:33;;;;;;;12.30;6.40;;;;;;;8.81;67.19;101764.91;5128424;27;20243;-62
2022/03/15 02:18:03;;;;;;;14.10;7.00;;;;;;;8.74;67.68;101753.06;5136229;27;20215;-62
2022/03/15 02:20:35;;;;;;;11.30;6.67;;;;;;;8.90;67.29;101753.69;5127642;27;20200;-62
2022/03/15 02:23:03;;;;;;;10.87;6.80;;;;;;;8.90;67.08;101748.41;5128299;27;20618;-62
2022/03/15 02:25:31;;;;;;;13.33;6.63;;;;;;;9.11;66.22;101752.22;5127589;27;20295;-62
2022/03/15 02:28:01;;;;;;;11.00;6.67;;;;;;;9.13;65.74;101744.16;5130829;27;20234;-59
2022/03/15 02:30:36;;;;;;;12.97;5.93;;;;;;;9.01;66.03;101746.72;5132158;27;20665;-60
2022/03/15 02:33:04;;;;;;;10.13;5.77;;;;;;;9.21;65.28;101747.97;5127317;27;20211;-60
2022/03/15 02:35:33;;;;;;;16.03;6.47;;;;;;;9.12;65.61;101748.59;5128681;27;20197;-60
2022/03/15 02:38:01;;;;;;;10.30;5.93;;;;;;;9.01;65.88;101752.00;5132168;27;20238;-59
2022/03/15 02:40:29;;;;;;;10.53;5.60;;;;;;;8.80;66.88;101752.63;5125640;27;20211;-60
2022/03/15 02:42:56;;;;;;;11.83;6.00;;;;;;;8.99;66.10;101751.25;5125857;27;20800;-60
2022/03/15 02:45:26;;;;;;;11.07;5.83;;;;;;;9.02;65.85;101742.25;5126786;27;20395;-60
2022/03/15 02:47:56;;;;;;;10.43;5.27;;;;;;;9.20;64.92;101733.03;5128406;27;20204;-60
2022/03/15 02:50:33;;;;;;;9.50;5.30;;;;;;;8.91;65.73;101737.72;5136497;27;20263;-61
2022/03/15 02:53:02;;;;;;;11.70;5.00;;;;;;;9.13;64.90;101728.28;5123442;27;20336;-60
2022/03/15 02:55:32;;;;;;;10.03;5.50;;;;;;;9.24;64.19;101731.84;5138207;27;20208;-60
2022/03/15 02:58:00;;;;;;;14.47;5.90;;;;;;;9.05;65.42;101728.84;5127245;27;20408;-59
2022/03/15 03:00:28;;;;;;;12.47;5.27;;;;;;;9.15;65.17;101727.19;5128246;27;20205;-61
2022/03/15 03:02:56;;;;;;;13.03;5.37;;;;;;;8.84;66.46;101728.50;5125653;28;20232;-60
2022/03/15 03:05:24;;;;;;;12.03;5.90;;;;;;;8.96;66.59;101732.13;5126730;27;20214;-60
2022/03/15 03:07:52;;;;;;;14.03;5.73;;;;;;;9.16;66.25;101726.25;5126871;28;20215;-59
2022/03/15 03:10:21;;;;;;;12.70;5.70;;;;;;;9.08;65.60;101728.59;5127217;27;20208;-60
2022/03/15 03:12:50;;;;;;;9.13;5.40;;;;;;;8.90;66.04;101727.22;5128441;27;20235;-60
2022/03/15 03:15:22;;;;;;;12.87;6.03;;;;;;;8.99;65.85;101721.31;5126885;27;20227;-59
2022/03/15 03:17:50;;;;;;;10.57;5.37;;;;;;;9.26;64.59;101708.78;5123182;27;20200;-59
2022/03/15 03:20:19;;;;;;;10.67;6.10;;;;;;;9.09;64.84;101722.34;5127643;27;20291;-60
2022/03/15 03:22:47;;;;;;;10.93;5.87;;;;;;;9.27;64.35;101709.63;5131492;27;20318;-60
2022/03/15 03:25:15;;;;;;;11.10;6.30;;;;;;;9.23;64.60;101708.16;5129047;27;20328;-60
2022/03/15 03:27:46;;;;;;;9.20;5.13;;;;;;;9.12;64.97;101726.59;5126868;28;20207;-62
2022/03/15 03:30:19;;;;;;;12.83;5.73;;;;;;;8.98;65.65;101722.25;5122550;27;20248;-60
2022/03/15 03:32:47;;;;;;;8.83;5.67;;;;;;;9.12;65.31;101718.66;5128736;27;20282;-60
2022/03/15 03:35:15;;;;;;;9.33;5.17;;;;;;;9.28;64.25;101721.91;5130085;27;20254;-59
2022/03/15 03:37:42;;;;;;;9.97;5.17;;;;;;;9.15;64.81;101706.03;5131383;27;20200;-60
2022/03/15 03:40:10;;;;;;;9.07;5.27;;;;;;;9.20;64.46;101714.50;5130922;27;20292;-61
2022/03/15 03:42:38;;;;;;;11.30;5.67;;;;;;;9.29;64.07;101699.78;5135972;27;20220;-61
2022/03/15 03:45:08;;;;;;;11.23;5.10;;;;;;;9.14;64.84;101692.94;5133736;27;20220;-61
2022/03/15 03:47:36;;;;;;;11.33;5.17;;;;;;;8.86;65.52;101702.81;5127541;27;20294;-61
2022/03/15 03:50:08;;;;;;;10.50;5.27;;;;;;;9.10;64.83;101708.16;5130963;27;20212;-60
2022/03/15 03:52:35;;;;;;;11.93;5.20;;;;;;;9.25;64.41;101707.06;5129603;27;20186;-60
2022/03/15 03:55:03;;;;;;;10.40;5.37;;;;;;;9.31;64.51;101708.44;5130451;27;20299;-61
2022/03/15 03:57:31;;;;;;;10.63;5.40;;;;;;;9.21;64.34;101710.91;5132302;27;20201;-61
2022/03/15 03:59:59;;;;;;;11.50;6.23;;;;;;;9.13;64.73;101701.81;5131417;27;20217;-60
2022/03/15 04:02:30;;;;;;;12.53;5.27;;;;;;;9.22;64.32;101696.72;5134182;27;20231;-61
2022/03/15 04:04:58;;;;;;;10.90;5.50;;;;;;;9.19;64.73;101701.38;5130180;27;20201;-61
2022/03/15 04:07:26;;;;;;;9.03;5.27;;;;;;;9.21;64.37;101700.31;5129965;27;20209;-62
2022/03/15 04:09:54;;;;;;;10.83;5.40;;;;;;;9.23;64.82;101694.94;5127561;27;20658;-61
2022/03/15 04:12:23;;;;;;;11.00;4.93;;;;;;;9.24;64.46;101694.78;5127208;27;20206;-61
2022/03/15 04:14:53;;;;;;;12.63;5.70;;;;;;;9.15;64.66;101690.16;5122700;27;20242;-61
2022/03/15 04:17:20;;;;;;;9.17;5.23;;;;;;;9.14;64.66;101695.59;5130093;27;20324;-59
2022/03/15 04:19:49;;;;;;;13.30;5.10;;;;;;;9.23;64.00;101693.13;5129209;27;20215;-61
2022/03/15 04:22:17;;;;;;;11.20;5.13;;;;;;;9.27;63.69;101688.44;5123326;27;20241;-65
2022/03/15 04:24:45;;;;;;;12.00;5.07;;;;;;;9.13;64.50;101696.53;5129955;27;20303;-64
2022/03/15 04:27:13;;;;;;;9.43;4.80;;;;;;;9.25;64.28;101685.03;5133585;27;20265;-61
2022/03/15 04:29:40;;;;;;;8.87;4.83;;;;;;;9.16;64.19;101691.84;5141035;27;20684;-62
2022/03/15 04:32:09;;;;;;;10.80;5.00;;;;;;;9.23;64.05;101687.84;5130516;27;20207;-62
2022/03/15 04:34:37;;;;;;;9.60;5.37;;;;;;;9.25;63.81;101685.91;5128245;27;20199;-61
2022/03/15 04:37:07;;;;;;;11.93;5.40;;;;;;;9.11;64.38;101686.06;5129199;27;20738;-63
2022/03/15 04:39:35;;;;;;;12.60;5.70;;;;;;;8.90;65.24;101685.75;5128966;27;20300;-61
2022/03/15 04:42:04;;;;;;;15.07;5.73;;;;;;;9.08;64.49;101683.59;5137502;27;20207;-62
2022/03/15 04:44:32;;;;;;;10.93;5.70;;;;;;;9.10;64.92;101684.34;5132873;27;20217;-62
2022/03/15 04:47:00;;;;;;;10.37;5.67;;;;;;;9.07;64.68;101679.28;5129825;27;20219;-62
2022/03/15 04:49:28;;;;;;;10.13;5.20;;;;;;;8.98;65.00;101672.81;5128584;27;20205;-60
2022/03/15 04:51:56;;;;;;;12.23;5.10;;;;;;;8.98;65.05;101671.97;5127427;27;20264;-61
2022/03/15 04:54:26;;;;;;;14.90;6.23;;;;;;;9.10;64.38;101676.41;5129205;27;20204;-62
2022/03/15 04:56:54;;;;;;;14.67;5.27;;;;;;;9.10;64.58;101665.81;5133719;27;20627;-63
2022/03/15 04:59:22;;;;;;;17.70;5.97;;;;;;;9.17;63.96;101661.78;5128081;27;20247;-63
2022/03/15 05:01:53;;;;;;;13.53;5.90;;;;;;;9.04;64.55;101666.28;5121729;27;20242;-61
2022/03/15 05:04:20;;;;;;;14.80;5.90;;;;;;;9.02;64.47;101657.59;5127491;27;20232;-61
2022/03/15 05:06:48;;;;;;;13.87;5.93;;;;;;;8.86;65.43;101651.72;5130062;27;20625;-61
2022/03/15 05:09:16;;;;;;;14.03;5.87;;;;;;;9.02;64.88;101654.94;5129304;27;21800;-62
2022/03/15 05:11:49;;;;;;;10.87;5.67;;;;;;;9.06;64.61;101651.09;5128476;27;20204;-62
2022/03/15 05:14:17;;;;;;;11.90;5.70;;;;;;;8.89;64.96;101654.97;5127904;27;20303;-62
2022/03/15 05:16:45;;;;;;;10.77;5.00;;;;;;;9.06;64.60;101648.47;5129723;27;20520;-61
2022/03/15 05:19:13;;;;;;;15.77;6.00;;;;;;;9.11;64.40;101645.50;5129231;27;20540;-61
2022/03/15 05:21:43;;;;;;;9.47;5.23;;;;;;;9.08;64.73;101646.56;5129104;27;20712;-63
2022/03/15 05:24:12;;;;;;;8.60;5.10;;;;;;;8.99;64.80;101639.28;5127921;27;20212;-61
2022/03/15 05:26:40;;;;;;;10.27;5.23;;;;;;;8.87;65.20;101648.13;5123174;27;20560;-63
2022/03/15 05:29:10;;;;;;;14.53;5.73;;;;;;;8.84;65.63;101650.97;5129197;27;20681;-61
2022/03/15 05:31:38;;;;;;;8.23;5.50;;;;;;;8.95;65.10;101648.41;5129036;27;20242;-62
2022/03/15 05:34:05;;;;;;;17.07;5.90;;;;;;;8.96;64.79;101652.75;5128392;27;20204;-63
2022/03/15 05:36:33;;;;;;;13.37;5.80;;;;;;;9.02;64.61;101652.31;5115481;27;20216;-62
2022/03/15 05:39:01;;;;;;;11.80;5.33;;;;;;;8.99;64.63;101640.13;5119372;27;20274;-62
2022/03/15 05:41:28;;;;;;;19.60;6.87;;;;;;;8.96;65.15;101636.88;5129396;27;20252;-62
2022/03/15 05:43:56;;;;;;;10.13;5.90;;;;;;;8.85;65.48;101642.91;5128739;27;20234;-62
2022/03/15 05:46:25;;;;;;;10.17;5.53;;;;;;;8.97;65.15;101638.56;5129416;27;20339;-61
2022/03/15 05:48:54;;;;;;;10.73;6.07;;;;;;;9.00;64.87;101636.53;5129055;27;20668;-63
2022/03/15 05:51:22;;;;;;;12.10;5.87;;;;;;;8.85;66.17;101644.72;5123180;27;20292;-61
2022/03/15 05:53:49;;;;;;;15.03;5.97;;;;;;;9.05;65.09;101641.50;5128912;27;20204;-62
2022/03/15 05:56:17;;;;;;;10.93;6.03;;;;;;;8.99;65.30;101634.00;5109768;27;20284;-64
2022/03/15 05:58:47;;;;;;;12.30;6.17;;;;;;;8.95;65.63;101635.19;5119178;27;20205;-64
2022/03/15 06:01:16;;;;;;;9.83;5.87;;;;;;;8.90;66.00;101642.59;5122593;27;20208;-62
2022/03/15 06:03:46;;;;;;;14.97;6.00;;;;;;;8.98;65.27;101629.66;5128489;27;20685;-63
2022/03/15 06:06:15;;;;;;;14.57;5.70;;;;;;;8.96;65.30;101628.94;5129370;27;20230;-62
2022/03/15 06:08:42;;;;;;;12.97;6.13;;;;;;;8.67;66.52;101642.41;5113616;27;20212;-64
2022/03/15 06:11:11;;;;;;;11.00;5.63;;;;;;;8.95;65.96;101633.38;5128338;27;20296;-62
2022/03/15 06:13:39;;;;;;;17.87;6.03;;;;;;;8.95;65.85;101629.88;5126808;27;20250;-62
2022/03/15 06:16:06;;;;;;;14.50;6.03;;;;;;;8.98;65.58;101622.56;5125884;27;20227;-63
2022/03/15 06:18:34;;;;;;;14.47;7.10;;;;;;;9.02;65.44;101624.03;5149789;27;20234;-61
2022/03/15 06:21:03;;;;;;;11.73;6.40;;;;;;;8.98;65.66;101624.34;5149088;27;20237;-64
2022/03/15 06:23:33;;;;;;;14.77;6.63;;;;;;;9.00;65.78;101623.31;5132610;27;20269;-62
2022/03/15 06:26:01;;;;;;;15.03;5.80;;;;;;;9.02;65.33;101631.97;5118358;27;20251;-63
2022/03/15 06:28:31;;;;;;;16.30;6.00;;;;;;;8.93;65.87;101637.09;5124153;27;21638;-62
2022/03/15 06:31:02;;;;;;;11.97;5.77;;;;;;;8.83;66.51;101641.34;5127727;27;20207;-63
2022/03/15 06:33:30;;;;;;;13.50;6.73;;;;;;;8.68;67.11;101640.63;5127361;27;20359;-63
2022/03/15 06:35:57;;;;;;;13.07;6.10;;;;;;;8.76;67.36;101637.44;5135006;27;20205;-62
2022/03/15 06:38:26;;;;;;;15.57;6.90;;;;;;;8.86;66.98;101641.13;5136106;27;20218;-63
2022/03/15 06:40:56;;;;;;;11.70;6.10;;;;;;;8.85;66.65;101640.28;5127983;27;20205;-63
2022/03/15 06:43:25;;;;;;;15.03;7.23;;;;;;;8.66;67.80;101630.16;5121705;27;20265;-62
2022/03/15 06:45:53;;;;;;;13.70;6.27;;;;;;;8.79;67.02;101640.72;5127873;27;20716;-61
2022/03/15 06:48:23;;;;;;;13.37;6.77;;;;;;;9.04;66.13;101640.66;5128183;27;20599;-63
2022/03/15 06:50:52;;;;;;;11.10;6.07;;;;;;;8.97;66.66;101634.09;5127945;27;20225;-64
2022/03/15 06:53:20;;;;;;;10.47;6.20;;;;;;;8.98;65.99;101637.59;5126139;28;20223;-61
2022/03/15 06:55:49;;;;;;;10.67;6.07;;;;;;;8.59;67.98;101635.97;5126485;28;20209;-63
2022/03/15 06:58:17;;;;;;;16.20;7.57;;;;;;;8.79;67.42;101645.16;5128099;28;20250;-63
2022/03/15 07:00:45;;;;;;;13.53;6.47;;;;;;;8.90;66.85;101639.94;5127705;28;20205;-61
2022/03/15 07:03:15;;;;;;;14.57;6.40;;;;;;;8.90;67.16;101643.44;5139158;27;20207;-62
2022/03/15 07:05:44;;;;;;;12.20;6.27;;;;;;;9.05;66.00;101623.84;5139695;27;20204;-62
2022/03/15 07:08:12;;;;;;;12.10;6.57;;;;;;;9.18;65.78;101625.56;5130190;27;20291;-62
2022/03/15 07:10:40;;;;;;;12.00;6.43;;;;;;;9.27;65.25;101625.75;5131762;27;20910;-63
2022/03/15 07:13:09;;;;;;;14.70;6.33;;;;;;;9.22;65.76;101625.25;5130728;27;20360;-62
2022/03/15 07:15:36;;;;;;;8.80;5.47;;;;;;;9.13;65.86;101622.44;5130189;27;20224;-63
2022/03/15 07:18:04;;;;;;;12.07;6.03;;;;;;;9.16;66.13;101617.75;5130603;27;20207;-63
2022/03/15 07:20:32;;;;;;;13.70;6.23;;;;;;;9.32;65.25;101617.50;5130496;27;20214;-63
2022/03/15 07:22:59;;;;;;;13.57;6.60;;;;;;;9.38;65.34;101628.47;5130735;27;20241;-63
2022/03/15 07:25:27;;;;;;;11.07;5.47;;;;;;;9.46;65.04;101635.00;5130443;27;20775;-63
2022/03/15 07:27:56;;;;;;;13.07;6.80;;;;;;;9.40;65.33;101617.78;5119786;27;20207;-63
2022/03/15 07:30:26;;;;;;;12.93;6.80;;;;;;;9.42;65.14;101608.75;5131854;27;20297;-62
2022/03/15 07:32:54;;;;;;;15.37;6.70;;;;;;;9.53;65.06;101615.06;5131187;27;20205;-63
2022/03/15 07:35:22;;;;;;;13.30;6.60;;;;;;;9.53;64.94;101620.34;5131406;27;20224;-63
2022/03/15 07:37:51;;;;;;;12.10;5.57;;;;;;;9.66;64.00;101611.41;5131111;27;20696;-63
2022/03/15 07:40:19;;;;;;;12.60;6.63;;;;;;;9.63;64.30;101611.63;5127167;27;20205;-63
2022/03/15 07:42:49;;;;;;;13.60;6.37;;;;;;;9.71;64.17;101601.28;5131309;27;20367;-63
2022/03/15 07:45:16;;;;;;;10.27;5.87;;;;;;;9.71;64.21;101600.44;5130583;27;20623;-63
2022/03/15 07:47:47;;;;;;;14.43;6.70;;;;;;;9.63;64.36;101600.19;5131649;27;20202;-63
2022/03/15 07:50:16;;;;;;;17.60;6.30;;;;;;;9.61;64.63;101596.78;5131378;27;20210;-63
2022/03/15 07:52:44;;;;;;;21.33;7.00;;;;;;;9.64;65.00;101597.41;5130798;27;20648;-63
2022/03/15 07:55:15;;;;;;;12.57;6.63;;;;;;;9.53;64.72;101599.16;5129429;27;20248;-63
2022/03/15 07:57:43;;;;;;;11.83;6.07;;;;;;;9.61;64.29;101591.50;5129937;27;20255;-62
2022/03/15 08:00:11;;;;;;;11.47;6.80;;;;;;;9.75;64.07;101592.16;5131473;27;20296;-62
2022/03/15 08:02:39;;;;;;;12.27;6.73;;;;;;;9.71;64.01;101590.69;5130345;27;20379;-63
2022/03/15 08:05:10;;;;;;;11.80;6.60;;;;;;;9.68;64.09;101580.31;5130342;27;20309;-62
2022/03/15 08:07:39;;;;;;;12.03;6.37;;;;;;;9.64;64.73;101580.69;5130853;27;20249;-62
2022/03/15 08:10:08;;;;;;;10.03;5.93;;;;;;;9.72;64.69;101578.28;5130290;27;20202;-62
2022/03/15 08:12:37;;;;;;;11.73;6.30;;;;;;;9.60;65.53;101579.22;5130704;27;20207;-62
2022/03/15 08:15:06;;;;;;;14.90;6.33;;;;;;;9.72;65.32;101578.28;5130581;27;20559;-62
2022/03/15 08:17:34;;;;;;;13.83;6.20;;;;;;;9.87;64.25;101586.88;5130632;27;20209;-63
2022/03/15 08:20:03;;;;;;;12.67;6.83;;;;;;;9.77;64.28;101587.56;5130928;27;20212;-62
2022/03/15 08:22:34;;;;;;;13.33;7.50;;;;;;;9.84;64.13;101577.38;5131051;27;20388;-63
2022/03/15 08:25:03;;;;;;;8.37;5.80;;;;;;;9.68;64.48;101584.78;5129281;27;20306;-62
2022/03/15 08:27:31;;;;;;;13.23;6.00;;;;;;;9.80;64.08;101586.50;5130635;27;20770;-63
2022/03/15 08:29:59;;;;;;;18.33;7.30;;;;;;;9.90;64.21;101590.16;5131101;27;20654;-61
2022/03/15 08:32:27;;;;;;;12.30;6.33;;;;;;;9.76;64.59;101580.59;5130445;27;20264;-62
2022/03/15 08:34:54;;;;;;;13.07;6.53;;;;;;;9.87;64.42;101582.44;5130224;27;20351;-62
2022/03/15 08:37:22;;;;;;;12.07;5.87;;;;;;;10.03;63.81;101579.44;5130399;27;20297;-62
2022/03/15 08:39:51;;;;;;;13.17;7.43;;;;;;;10.06;63.46;101573.91;5119247;27;20588;-62
2022/03/15 08:42:23;;;;;;;12.80;6.03;;;;;;;10.06;62.99;101573.91;5128691;27;20642;-62
2022/03/15 08:44:51;;;;;;;11.07;7.23;;;;;;;10.06;63.47;101574.75;5128523;27;20233;-62
2022/03/15 08:47:19;;;;;;;13.83;6.10;;;;;;;9.87;63.86;101565.69;5130134;27;20233;-62
2022/03/15 08:49:50;;;;;;;11.07;6.70;;;;;;;10.02;62.40;101569.84;5130249;27;20211;-63
2022/03/15 08:52:17;;;;;;;11.40;6.10;;;;;;;9.91;63.20;101560.06;5130674;27;20300;-63
2022/03/15 08:54:45;;;;;;;11.70;6.47;;;;;;;10.11;63.07;101553.22;5129065;27;20333;-63
2022/03/15 08:57:15;;;;;;;13.83;6.67;;;;;;;10.25;62.46;101565.41;5130461;27;20209;-62
2022/03/15 08:59:42;;;;;;;14.53;6.73;;;;;;;10.20;62.45;101546.41;5128956;27;20284;-62
2022/03/15 09:02:12;;;;;;;13.47;7.00;;;;;;;10.21;62.17;101542.75;5128930;27;20212;-62
2022/03/15 09:04:40;;;;;;;12.00;7.23;;;;;;;10.34;61.94;101528.44;5129549;27;20725;-62
2022/03/15 09:07:08;;;;;;;14.13;7.30;;;;;;;10.26;62.99;101530.84;5129924;27;20214;-62
2022/03/15 09:09:36;;;;;;;20.13;7.30;;;;;;;10.23;63.24;101541.69;5129862;27;20559;-61
2022/03/15 09:12:04;;;;;;;14.23;7.13;;;;;;;10.39;63.09;101530.72;5130303;27;20580;-62
2022/03/15 09:14:34;;;;;;;13.80;7.40;;;;;;;10.31;63.71;101525.16;5129064;27;20330;-62
2022/03/15 09:17:01;;;;;;;15.33;6.77;;;;;;;10.48;63.84;101522.03;5128905;27;20216;-62
2022/03/15 09:19:29;;;;;;;17.77;7.60;;;;;;;10.42;63.83;101512.75;5129264;27;20807;-62
2022/03/15 09:22:01;;;;;;;15.80;7.77;;;;;;;10.01;65.02;101509.84;5130153;27;20598;-63
2022/03/15 09:24:30;;;;;;;16.03;7.57;;;;;;;10.07;64.65;101512.00;5129199;27;20676;-62
2022/03/15 09:26:57;;;;;;;18.40;7.93;;;;;;;10.20;64.04;101493.38;5129909;27;20200;-62
2022/03/15 09:29:25;;;;;;;13.83;7.53;;;;;;;10.10;64.86;101504.66;5129029;27;20704;-62
2022/03/15 09:31:55;;;;;;;13.20;6.77;;;;;;;10.29;63.49;101505.91;5132442;27;20217;-62
2022/03/15 09:34:23;;;;;;;15.33;6.60;;;;;;;10.14;64.25;101502.59;5128462;27;20219;-61
2022/03/15 09:36:51;;;;;;;12.83;7.03;;;;;;;10.24;64.03;101505.41;5121695;27;20231;-62
2022/03/15 09:39:19;;;;;;;12.97;7.70;;;;;;;9.88;65.36;101509.94;5129501;27;20199;-61
2022/03/15 09:41:53;;;;;;;15.13;6.83;;;;;;;10.24;64.22;101500.09;5129179;27;20212;-62
2022/03/15 09:44:26;;;;;;;21.17;7.33;;;;;;;10.34;64.31;101501.06;5128483;27;20284;-62
2022/03/15 09:47:00;;;;;;;16.90;8.03;;;;;;;9.85;65.90;101506.69;5128833;27;20317;-62
2022/03/15 09:49:35;;;;;;;15.07;7.20;;;;;;;10.16;64.82;101493.56;5130102;27;20206;-62
2022/03/15 09:52:06;;;;;;;14.67;8.30;;;;;;;10.15;65.06;101489.25;5129717;27;20201;-62
2022/03/15 09:54:36;;;;;;;13.27;7.73;;;;;;;10.33;65.17;101488.78;5125604;27;20605;-62
2022/03/15 09:57:04;;;;;;;19.07;7.97;;;;;;;10.16;65.86;101488.28;5122532;27;20289;-62
2022/03/15 09:59:33;;;;;;;14.57;8.40;;;;;;;10.03;66.36;101482.22;5129029;27;20209;-61
2022/03/15 10:02:03;;;;;;;18.67;8.20;;;;;;;10.21;67.22;101479.13;5128570;27;20220;-62
2022/03/15 10:04:31;;;;;;;18.37;8.80;;;;;;;10.29;64.99;101471.44;5128489;27;20221;-61
2022/03/15 10:07:00;;;;;;;13.60;7.77;;;;;;;10.37;64.71;101469.03;5129201;27;20237;-63
2022/03/15 10:09:27;;;;;;;18.83;10.23;;;;;;;9.93;66.45;101477.81;5127760;27;20213;-63
2022/03/15 10:11:56;;;;;;;15.50;9.10;;;;;;;10.21;65.09;101469.38;5129105;27;20212;-61
2022/03/15 10:14:24;;;;;;;13.97;7.80;;;;;;;10.26;65.60;101471.69;5126412;27;20267;-61
2022/03/15 10:16:52;;;;;;;17.17;7.40;;;;;;;10.22;65.11;101468.41;5129146;27;20552;-61
2022/03/15 10:19:21;;;;;;;14.37;7.57;;;;;;;10.36;65.13;101472.63;5127889;27;20211;-62
2022/03/15 10:21:51;;;;;;;11.97;7.47;;;;;;;10.20;65.87;101473.03;5129232;27;20213;-63
2022/03/15 10:24:22;;;;;;;14.17;7.47;;;;;;;10.32;66.29;101456.13;5128060;27;20257;-63
2022/03/15 10:26:52;;;;;;;15.33;7.87;;;;;;;10.31;66.35;101442.97;5127828;27;20209;-63
2022/03/15 10:29:22;;;;;;;13.70;8.10;;;;;;;10.48;67.18;101435.34;5127393;27;20212;-63
2022/03/15 10:31:51;;;;;;;13.30;8.50;;;;;;;10.56;67.71;101434.72;5128189;27;20199;-63
2022/03/15 10:34:22;;;;;;;14.70;7.63;;;;;;;10.54;67.21;101418.13;5126809;27;20576;-63
2022/03/15 10:36:54;;;;;;;19.67;8.27;;;;;;;10.69;66.88;101421.31;5127421;27;20195;-63
2022/03/15 10:39:22;;;;;;;12.43;8.13;;;;;;;10.40;67.44;101418.38;5122795;27;20651;-63
2022/03/15 10:41:53;;;;;;;14.70;7.27;;;;;;;10.57;65.92;101416.03;5126384;27;20286;-62
2022/03/15 10:44:25;;;;;;;16.63;8.73;;;;;;;10.63;66.65;101409.41;5108714;28;20289;-62
2022/03/15 10:47:02;;;;;;;15.33;7.67;;;;;;;10.53;67.60;101395.22;5127958;27;20323;-62
2022/03/15 10:49:34;;;;;;;11.93;7.57;;;;;;;10.15;70.22;101396.47;5128680;27;20281;-61
2022/03/15 10:52:01;;;;;;;17.17;8.77;;;;;;;10.41;68.59;101397.03;5127920;27;20299;-62
2022/03/15 10:54:31;;;;;;;12.23;8.43;;;;;;;10.49;68.07;101399.06;5127779;28;20298;-63
2022/03/15 10:57:00;;;;;;;13.17;7.97;;;;;;;10.47;69.66;101398.34;5127958;28;20199;-62
2022/03/15 10:59:28;;;;;;;13.90;8.27;;;;;;;10.44;71.58;101396.81;5127656;28;20214;-62
2022/03/15 11:01:57;;;;;;;16.90;9.00;;;;;;;10.30;70.89;101386.47;5128292;28;20292;-61
2022/03/15 11:04:25;;;;;;;16.17;9.57;;;;;;;10.36;73.12;101383.34;5127283;28;20706;-63
2022/03/15 11:06:55;;;;;;;16.93;8.70;;;;;;;10.17;74.07;101373.38;5128521;28;20285;-63
2022/03/15 11:09:25;;;;;;;17.80;8.57;;;;;;;10.34;72.78;101364.06;5127612;28;20658;-63
2022/03/15 11:11:57;;;;;;;15.33;9.37;;;;;;;10.60;71.51;101359.25;5120205;28;20199;-63
2022/03/15 11:14:36;;;;;;;13.83;9.33;;;;;;;10.54;73.63;101355.31;5126769;28;20249;-63
2022/03/15 11:17:08;;;;;;;19.80;9.57;;;;;;;10.59;74.29;101357.56;5127576;28;20201;-63
2022/03/15 11:19:40;;;;;;;22.47;9.93;;;;;;;10.67;74.04;101362.25;5128509;28;20782;-63
2022/03/15 11:22:10;;;;;;;19.30;9.63;;;;;;;10.56;75.34;101352.50;5128068;28;20211;-63
2022/03/15 11:24:42;;;;;;;16.37;9.43;;;;;;;10.54;75.76;101343.88;5126277;28;20207;-63
2022/03/15 11:27:16;;;;;;;15.27;9.30;;;;;;;10.63;74.58;101343.09;5127506;28;20226;-63
2022/03/15 11:29:45;;;;;;;20.03;9.63;;;;;;;10.39;77.11;101345.94;5128236;28;20293;-64
2022/03/15 11:32:14;;;;;;;14.23;9.23;;;;;;;10.37;75.99;101331.16;5127986;28;20291;-63